createdAt,value
2022-09-02T00:01:27.560Z,4.60
2022-09-02T00:04:00.328Z,5.00
2022-09-02T00:06:29.358Z,4.47
2022-09-02T00:08:57.480Z,4.57
2022-09-02T00:11:27.700Z,4.40
2022-09-02T00:13:57.872Z,4.97
2022-09-02T00:16:26.451Z,4.50
2022-09-02T00:18:56.348Z,4.80
2022-09-02T00:21:25.620Z,4.20
2022-09-02T00:23:53.995Z,4.37
2022-09-02T00:26:22.169Z,4.53
2022-09-02T00:28:55.724Z,4.27
2022-09-02T00:31:24.541Z,3.83
2022-09-02T00:33:52.403Z,4.33
2022-09-02T00:36:20.495Z,4.10
2022-09-02T00:38:49.886Z,4.78
2022-09-02T00:41:19.779Z,4.50
2022-09-02T00:43:49.942Z,4.00
2022-09-02T00:46:21.374Z,4.13
2022-09-02T00:48:54.820Z,3.95
2022-09-02T00:51:23.235Z,4.20
2022-09-02T00:53:52.606Z,4.43
2022-09-02T00:56:23.424Z,3.87
2022-09-02T00:58:52.946Z,4.27
2022-09-02T01:01:22.609Z,4.40
2022-09-02T01:03:51.248Z,4.40
2022-09-02T01:06:24.411Z,4.00
2022-09-02T01:09:01.156Z,3.80
2022-09-02T01:11:32.872Z,4.30
2022-09-02T01:14:01.772Z,4.67
2022-09-02T01:16:34.543Z,4.70
2022-09-02T01:19:07.571Z,5.20
2022-09-02T01:21:36.112Z,4.50
2022-09-02T01:24:06.075Z,3.90
2022-09-02T01:26:33.933Z,4.23
2022-09-02T01:29:01.802Z,4.47
2022-09-02T01:31:29.759Z,3.93
2022-09-02T01:33:58.045Z,4.30
2022-09-02T01:36:26.180Z,4.80
2022-09-02T01:38:54.180Z,4.37
2022-09-02T01:41:23.377Z,4.32
2022-09-02T01:43:51.198Z,4.67
2022-09-02T01:46:19.087Z,4.60
2022-09-02T01:48:46.965Z,4.07
2022-09-02T01:51:18.722Z,4.90
2022-09-02T01:53:46.642Z,4.20
2022-09-02T01:56:14.820Z,4.37
2022-09-02T01:58:44.176Z,4.80
2022-09-02T02:01:12.698Z,4.73
2022-09-02T02:03:40.670Z,4.87
2022-09-02T02:06:12.695Z,4.90
2022-09-02T02:08:41.097Z,4.73
2022-09-02T02:11:09.638Z,4.00
2022-09-02T02:13:37.671Z,4.45
2022-09-02T02:16:07.035Z,4.43
2022-09-02T02:18:34.928Z,4.73
2022-09-02T02:21:02.909Z,4.83
2022-09-02T02:23:30.753Z,5.07
2022-09-02T02:25:58.705Z,4.83
2022-09-02T02:28:26.974Z,4.70
2022-09-02T02:30:55.031Z,4.70
2022-09-02T02:33:30.309Z,4.40
2022-09-02T02:36:05.556Z,5.00
2022-09-02T02:38:34.545Z,4.60
2022-09-02T02:41:06.263Z,4.67
2022-09-02T02:43:34.767Z,4.50
2022-09-02T02:46:02.946Z,4.63
2022-09-02T02:48:32.109Z,4.47
2022-09-02T02:51:00.076Z,4.83
2022-09-02T02:53:29.690Z,4.30
2022-09-02T02:55:57.758Z,4.30
2022-09-02T02:58:26.027Z,4.73
2022-09-02T03:00:53.874Z,4.70
2022-09-02T03:03:22.548Z,4.20
2022-09-02T03:05:52.278Z,5.00
2022-09-02T03:08:21.688Z,4.63
2022-09-02T03:10:54.253Z,4.75
2022-09-02T03:13:23.211Z,4.90
2022-09-02T03:15:51.280Z,5.63
2022-09-02T03:18:19.208Z,4.50
2022-09-02T03:20:47.088Z,5.13
2022-09-02T03:23:17.418Z,4.87
2022-09-02T03:25:46.627Z,5.10
2022-09-02T03:28:14.807Z,4.73
2022-09-02T03:30:43.375Z,5.17
2022-09-02T03:33:11.321Z,4.80
2022-09-02T03:35:40.911Z,4.73
2022-09-02T03:38:09.511Z,5.00
2022-09-02T03:40:40.169Z,4.53
2022-09-02T03:43:08.135Z,4.82
2022-09-02T03:45:36.119Z,5.07
2022-09-02T03:48:04.562Z,4.77
2022-09-02T03:50:34.735Z,4.73
2022-09-02T03:53:02.677Z,5.10
2022-09-02T03:55:31.048Z,4.73
2022-09-02T03:58:00.427Z,4.47
2022-09-02T04:00:31.786Z,5.10
2022-09-02T04:03:01.358Z,5.00
2022-09-02T04:05:29.337Z,4.63
2022-09-02T04:07:57.402Z,4.50
2022-09-02T04:10:25.784Z,5.00
2022-09-02T04:12:54.199Z,4.90
2022-09-02T04:15:23.452Z,4.60
2022-09-02T04:17:51.262Z,5.37
2022-09-02T04:20:19.078Z,4.80
2022-09-02T04:22:47.006Z,4.60
2022-09-02T04:25:14.848Z,4.90
2022-09-02T04:27:42.707Z,5.90
2022-09-02T04:30:11.712Z,4.90
2022-09-02T04:32:41.139Z,4.50
2022-09-02T04:35:09.288Z,4.50
2022-09-02T04:37:37.149Z,4.73
2022-09-02T04:40:05.870Z,5.13
2022-09-02T04:42:34.225Z,5.20
2022-09-02T04:45:02.052Z,4.60
2022-09-02T04:47:30.363Z,4.80
2022-09-02T04:49:59.525Z,4.37
2022-09-02T04:52:27.348Z,5.10
2022-09-02T04:54:55.210Z,5.23
2022-09-02T04:57:23.104Z,4.70
2022-09-02T04:59:50.899Z,4.93
2022-09-02T05:02:20.232Z,5.60
2022-09-02T05:04:48.191Z,4.87
2022-09-02T05:07:17.354Z,5.20
2022-09-02T05:09:45.419Z,5.30
2022-09-02T05:12:14.610Z,5.13
2022-09-02T05:14:43.614Z,5.47
2022-09-02T05:17:11.459Z,5.15
2022-09-02T05:19:39.314Z,5.40
2022-09-02T05:22:07.131Z,5.40
2022-09-02T05:24:36.256Z,5.33
2022-09-02T05:27:04.125Z,5.47
2022-09-02T05:29:31.936Z,5.63
2022-09-02T05:31:59.784Z,5.40
2022-09-02T05:34:28.411Z,5.20
2022-09-02T05:36:57.278Z,5.13
2022-09-02T05:39:26.796Z,5.35
2022-09-02T05:41:56.115Z,4.78
2022-09-02T05:44:23.980Z,5.00
2022-09-02T05:46:51.934Z,5.50
2022-09-02T05:49:21.593Z,5.03
2022-09-02T05:51:53.015Z,5.10
2022-09-02T05:54:24.090Z,5.23
2022-09-02T05:56:54.704Z,5.43
2022-09-02T05:59:25.408Z,4.78
2022-09-02T06:01:54.072Z,5.63
2022-09-02T06:04:22.745Z,4.90
2022-09-02T06:06:51.637Z,4.97
2022-09-02T06:09:22.710Z,4.93
2022-09-02T06:11:52.050Z,4.67
2022-09-02T06:14:22.333Z,4.47
2022-09-02T06:16:52.726Z,4.70
2022-09-02T06:19:20.751Z,4.67
2022-09-02T06:21:49.019Z,4.90
2022-09-02T06:24:16.851Z,4.67
2022-09-02T06:26:45.309Z,4.53
2022-09-02T06:29:14.320Z,4.57
2022-09-02T06:31:43.615Z,4.60
2022-09-02T06:34:14.634Z,4.83
2022-09-02T06:36:43.607Z,4.70
2022-09-02T06:39:13.098Z,4.90
2022-09-02T06:41:42.796Z,4.93
2022-09-02T06:44:12.263Z,4.47
2022-09-02T06:46:47.350Z,4.63
2022-09-02T06:49:17.308Z,5.30
2022-09-02T06:51:47.236Z,4.70
2022-09-02T06:54:17.504Z,4.20
2022-09-02T06:56:49.624Z,5.10
2022-09-02T06:59:18.215Z,4.63
2022-09-02T07:01:46.724Z,5.20
2022-09-02T07:04:34.101Z,5.22
2022-09-02T07:07:01.968Z,5.53
2022-09-02T07:09:31.154Z,5.40
2022-09-02T07:12:04.239Z,5.43
2022-09-02T07:14:36.736Z,5.03
2022-09-02T07:17:04.724Z,4.83
2022-09-02T07:19:33.981Z,4.83
2022-09-02T07:22:03.348Z,4.60
2022-09-02T07:24:31.224Z,5.17
2022-09-02T07:26:59.047Z,4.43
2022-09-02T07:29:27.116Z,4.80
2022-09-02T07:31:54.953Z,4.80
2022-09-02T07:34:22.791Z,4.90
2022-09-02T07:36:52.583Z,5.05
2022-09-02T07:39:20.889Z,5.10
2022-09-02T07:41:51.377Z,5.23
2022-09-02T07:44:21.969Z,5.17
2022-09-02T07:46:49.904Z,5.30
2022-09-02T07:49:23.383Z,4.65
2022-09-02T07:51:53.237Z,4.90
2022-09-02T07:54:23.772Z,4.83
2022-09-02T07:56:51.720Z,4.75
2022-09-02T07:59:21.729Z,4.27
2022-09-02T08:01:50.276Z,4.40
2022-09-02T08:04:19.665Z,4.07
2022-09-02T08:06:47.600Z,4.13
2022-09-02T08:09:16.976Z,3.97
2022-09-02T08:11:47.512Z,4.47
2022-09-02T08:14:18.532Z,4.20
2022-09-02T08:16:48.405Z,3.80
2022-09-02T08:19:16.749Z,4.23
2022-09-02T08:21:44.613Z,4.10
2022-09-02T08:24:12.447Z,4.23
2022-09-02T08:26:41.826Z,4.87
2022-09-02T08:29:10.507Z,3.60
2022-09-02T08:31:39.332Z,3.97
2022-09-02T08:34:07.417Z,3.60
2022-09-02T08:36:35.238Z,3.67
2022-09-02T08:39:04.407Z,3.85
2022-09-02T08:41:40.331Z,3.78
2022-09-02T08:44:14.927Z,3.70
2022-09-02T08:46:43.140Z,4.43
2022-09-02T08:49:17.345Z,3.73
2022-09-02T08:51:53.549Z,3.40
2022-09-02T08:54:27.129Z,3.90
2022-09-02T08:56:56.177Z,4.07
2022-09-02T08:59:27.487Z,3.67
2022-09-02T09:02:04.862Z,3.67
2022-09-02T09:04:56.983Z,4.10
2022-09-02T09:07:34.149Z,3.55
2022-09-02T09:10:10.629Z,4.13
2022-09-02T09:13:02.342Z,4.05
2022-09-02T09:15:40.893Z,3.63
2022-09-02T09:18:12.764Z,3.90
2022-09-02T09:20:43.417Z,4.40
2022-09-02T09:23:24.030Z,3.47
2022-09-02T09:25:56.431Z,4.10
2022-09-02T09:28:24.347Z,3.40
2022-09-02T09:30:53.524Z,3.67
2022-09-02T09:33:23.779Z,3.73
2022-09-02T09:35:53.754Z,3.43
2022-09-02T09:38:31.349Z,4.00
2022-09-02T09:41:21.464Z,3.57
2022-09-02T09:43:49.411Z,3.77
2022-09-02T09:46:28.641Z,3.70
2022-09-02T09:48:56.940Z,3.37
2022-09-02T09:51:25.067Z,3.13
2022-09-02T09:53:53.307Z,3.63
2022-09-02T09:56:37.300Z,4.10
2022-09-02T09:59:08.746Z,3.40
2022-09-02T10:01:38.537Z,3.20
2022-09-02T10:04:32.175Z,3.53
2022-09-02T10:06:57.686Z,3.00
2022-09-02T10:09:34.304Z,3.20
2022-09-02T10:12:05.044Z,3.13
2022-09-02T10:14:38.031Z,2.93
2022-09-02T10:17:24.773Z,3.00
2022-09-02T10:19:57.814Z,3.30
2022-09-02T10:22:59.524Z,3.07
2022-09-02T10:25:34.487Z,3.00
2022-09-02T10:28:09.850Z,3.60
2022-09-02T10:30:44.704Z,3.33
2022-09-02T10:33:36.161Z,3.30
2022-09-02T10:36:18.151Z,2.97
2022-09-02T10:38:50.604Z,3.43
2022-09-02T10:41:32.687Z,3.40
2022-09-02T10:44:27.276Z,2.60
2022-09-02T10:47:01.381Z,3.70
2022-09-02T10:49:51.891Z,3.20
2022-09-02T10:52:38.455Z,4.27
2022-09-02T10:55:17.080Z,5.47
2022-09-02T10:57:52.775Z,3.50
2022-09-02T11:00:23.121Z,2.83
2022-09-02T11:02:55.331Z,3.13
2022-09-02T11:05:28.493Z,3.20
2022-09-02T11:08:04.807Z,3.20
2022-09-02T11:10:36.404Z,2.63
2022-09-02T11:13:09.097Z,2.93
2022-09-02T11:15:45.354Z,3.70
2022-09-02T11:18:24.122Z,3.00
2022-09-02T11:21:01.971Z,3.30
2022-09-02T11:23:38.235Z,3.20
2022-09-02T11:26:12.548Z,3.13
2022-09-02T11:28:47.501Z,3.10
2022-09-02T11:31:22.671Z,3.30
2022-09-02T11:33:57.679Z,3.53
2022-09-02T11:36:30.937Z,3.23
2022-09-02T11:39:06.675Z,3.23
2022-09-02T11:41:54.351Z,3.23
2022-09-02T11:44:54.318Z,3.50
2022-09-02T11:47:58.182Z,3.40
2022-09-02T11:50:53.569Z,3.00
2022-09-02T11:53:27.593Z,3.10
2022-09-02T11:56:00.625Z,3.03
2022-09-02T11:58:36.668Z,2.97
2022-09-02T12:01:37.121Z,2.97
2022-09-02T12:07:26.556Z,3.13
2022-09-02T12:09:58.981Z,3.23
2022-09-02T12:13:03.071Z,3.07
2022-09-02T12:15:31.043Z,3.27
2022-09-02T12:18:13.349Z,3.10
2022-09-02T12:21:16.469Z,3.20
2022-09-02T12:24:21.646Z,3.13
2022-09-02T12:27:22.516Z,3.30
2022-09-02T12:29:52.217Z,3.00
2022-09-02T12:33:05.029Z,2.87
2022-09-02T12:35:53.165Z,3.30
2022-09-02T12:38:38.757Z,3.27
2022-09-02T12:41:23.995Z,3.50
2022-09-02T12:44:28.003Z,3.70
2022-09-02T12:47:07.888Z,3.13
2022-09-02T12:49:44.537Z,3.07
2022-09-02T12:52:13.831Z,3.17
2022-09-02T12:54:47.801Z,3.10
2022-09-02T12:57:17.413Z,3.13
2022-09-02T12:59:47.835Z,3.33
2022-09-02T13:02:32.667Z,3.70
2022-09-02T13:05:11.622Z,3.20
2022-09-02T13:08:19.680Z,3.30
2022-09-02T13:11:18.493Z,3.10
2022-09-02T13:14:34.164Z,3.53
2022-09-02T13:17:37.688Z,3.10
2022-09-02T13:20:41.588Z,3.47
2022-09-02T13:23:42.769Z,3.47
2022-09-02T13:26:49.239Z,3.30
2022-09-02T13:29:52.721Z,3.70
2022-09-02T13:32:26.047Z,3.20
2022-09-02T13:34:57.754Z,3.10
2022-09-02T13:37:30.955Z,3.33
2022-09-02T13:39:59.055Z,3.20
2022-09-02T13:42:33.007Z,3.20
2022-09-02T13:45:12.259Z,3.13
2022-09-02T13:47:44.998Z,3.28
2022-09-02T13:50:15.808Z,3.27
2022-09-02T13:53:34.334Z,2.90
2022-09-02T13:55:34.438Z,3.20
2022-09-02T13:58:05.911Z,2.93
2022-09-02T14:00:36.373Z,2.77
2022-09-02T14:03:08.639Z,3.10
2022-09-02T14:05:41.842Z,3.05
2022-09-02T14:08:14.892Z,2.90
2022-09-02T14:10:44.032Z,3.33
2022-09-02T14:13:13.407Z,3.40
2022-09-02T14:15:41.252Z,3.20
2022-09-02T14:18:17.936Z,2.80
2022-09-02T14:20:58.612Z,3.30
2022-09-02T14:23:28.389Z,3.33
2022-09-02T14:25:59.072Z,2.70
2022-09-02T14:28:29.681Z,3.10
2022-09-02T14:31:03.610Z,3.53
2022-09-02T14:33:43.751Z,2.70
2022-09-02T14:36:32.195Z,2.80
2022-09-02T14:39:12.357Z,2.90
2022-09-02T14:41:47.311Z,3.33
2022-09-02T14:44:22.493Z,3.10
2022-09-02T14:46:52.323Z,2.93
2022-09-02T14:49:26.802Z,3.38
2022-09-02T14:51:56.617Z,3.43
2022-09-02T14:54:39.709Z,3.33
2022-09-02T14:57:20.651Z,3.50
2022-09-02T14:59:48.551Z,3.50
2022-09-02T15:02:32.127Z,3.70
2022-09-02T15:05:03.364Z,3.37
2022-09-02T15:07:31.559Z,3.20
2022-09-02T15:09:59.582Z,3.20
2022-09-02T15:12:30.607Z,3.20
2022-09-02T15:14:59.027Z,3.67
2022-09-02T15:17:28.322Z,3.40
2022-09-02T15:19:56.582Z,3.30
2022-09-02T15:22:25.831Z,3.50
2022-09-02T15:24:53.672Z,3.67
2022-09-02T15:27:21.937Z,3.20
2022-09-02T15:29:49.985Z,3.50
2022-09-02T15:32:18.044Z,3.37
2022-09-02T15:34:46.036Z,3.50
2022-09-02T15:37:14.187Z,3.63
2022-09-02T15:39:43.496Z,3.50
2022-09-02T15:42:11.526Z,3.17
2022-09-02T15:44:39.318Z,3.33
2022-09-02T15:47:07.205Z,3.20
2022-09-02T15:49:35.088Z,3.27
2022-09-02T15:52:03.259Z,3.45
2022-09-02T15:54:31.915Z,3.60
2022-09-02T15:57:01.079Z,3.00
2022-09-02T15:59:29.043Z,3.10
2022-09-02T16:01:58.599Z,3.10
2022-09-02T16:04:27.258Z,2.53
2022-09-02T16:06:55.785Z,2.27
2022-09-02T16:09:23.867Z,2.00
2022-09-02T16:11:53.597Z,1.90
2022-09-02T16:14:23.973Z,1.97
2022-09-02T16:16:54.973Z,2.00
2022-09-02T16:19:24.213Z,1.73
2022-09-02T16:21:52.755Z,2.10
2022-09-02T16:24:22.697Z,1.90
2022-09-02T16:26:51.399Z,2.05
2022-09-02T16:29:20.995Z,2.60
2022-09-02T16:32:14.056Z,2.50
2022-09-02T16:34:39.475Z,2.15
2022-09-02T16:37:07.288Z,1.70
2022-09-02T16:39:35.133Z,1.80
2022-09-02T16:42:04.545Z,1.67
2022-09-02T16:44:33.832Z,1.80
2022-09-02T16:47:03.070Z,2.20
2022-09-02T16:49:32.099Z,2.00
2022-09-02T16:51:59.955Z,1.90
2022-09-02T16:54:30.664Z,1.97
2022-09-02T16:57:00.082Z,2.10
2022-09-02T16:59:27.993Z,2.37
2022-09-02T17:01:55.902Z,2.13
2022-09-02T17:04:25.245Z,1.85
2022-09-02T17:06:53.134Z,1.70
2022-09-02T17:09:21.638Z,2.37
2022-09-02T17:11:49.469Z,2.27
2022-09-02T17:14:18.862Z,2.13
2022-09-02T17:16:48.409Z,2.20
2022-09-02T17:19:21.412Z,2.20
2022-09-02T17:21:52.582Z,1.70
2022-09-02T17:24:22.585Z,1.70
2022-09-02T17:26:52.420Z,2.00
2022-09-02T17:32:10.239Z,1.83
2022-09-02T17:34:38.098Z,2.07
2022-09-02T17:37:08.063Z,2.03
2022-09-02T17:39:35.999Z,2.10
2022-09-02T17:42:05.305Z,2.13
2022-09-02T17:44:37.385Z,2.20
2022-09-02T17:47:06.935Z,2.03
2022-09-02T17:49:36.218Z,2.37
2022-09-02T17:52:05.319Z,2.50
2022-09-02T17:54:35.673Z,2.10
2022-09-02T17:57:21.633Z,1.83
2022-09-02T18:00:06.275Z,1.87
2022-09-02T18:03:22.259Z,2.10
2022-09-02T18:06:16.227Z,1.73
2022-09-02T18:08:51.220Z,1.97
2022-09-02T18:11:22.538Z,1.90
2022-09-02T18:13:57.144Z,2.17
2022-09-02T18:16:32.284Z,1.90
2022-09-02T18:19:13.419Z,1.90
2022-09-02T18:21:54.014Z,2.07
2022-09-02T18:24:34.047Z,2.00
2022-09-02T18:27:11.983Z,1.77
2022-09-02T18:29:53.190Z,1.70
2022-09-02T18:32:32.412Z,2.10
2022-09-02T18:35:10.726Z,1.90
2022-09-02T18:37:48.403Z,1.70
2022-09-02T18:40:28.194Z,2.10
2022-09-02T18:43:08.443Z,2.17
2022-09-02T18:45:44.682Z,1.77
2022-09-02T18:48:14.674Z,2.20
2022-09-02T18:50:51.499Z,1.90
2022-09-02T18:53:23.328Z,2.10
2022-09-02T18:55:53.873Z,2.83
2022-09-02T18:58:35.063Z,2.10
2022-09-02T19:01:09.429Z,2.03
2022-09-02T19:03:38.462Z,1.90
2022-09-02T19:06:08.638Z,1.50
2022-09-02T19:08:38.159Z,3.20
2022-09-02T19:11:08.663Z,3.03
2022-09-02T19:13:47.053Z,2.40
2022-09-02T19:16:17.131Z,2.10
2022-09-02T19:18:45.348Z,2.08
2022-09-02T19:21:17.583Z,2.03
2022-09-02T19:23:47.546Z,2.97
2022-09-02T19:26:15.513Z,2.27
2022-09-02T19:28:46.856Z,2.13
2022-09-02T19:31:20.368Z,1.90
2022-09-02T19:33:54.184Z,1.93
2022-09-02T19:36:24.034Z,2.13
2022-09-02T19:38:54.134Z,1.97
2022-09-02T19:41:23.932Z,1.90
2022-09-02T19:43:54.040Z,2.10
2022-09-02T19:46:59.728Z,2.10
2022-09-02T19:49:09.886Z,2.13
2022-09-02T19:51:37.666Z,1.80
2022-09-02T19:54:05.509Z,2.17
2022-09-02T19:56:33.304Z,2.30
2022-09-02T19:59:02.760Z,2.60
2022-09-02T20:01:31.045Z,2.55
2022-09-02T20:03:58.967Z,2.27
2022-09-02T20:06:26.828Z,2.27
2022-09-02T20:08:54.662Z,2.20
2022-09-02T20:11:23.510Z,2.20
2022-09-02T20:13:51.334Z,2.10
2022-09-02T20:16:23.053Z,2.30
2022-09-02T20:18:53.017Z,2.00
2022-09-02T20:21:23.971Z,1.97
2022-09-02T20:23:53.820Z,2.30
2022-09-02T20:26:34.998Z,2.03
2022-09-02T20:29:12.602Z,2.20
2022-09-02T20:31:57.092Z,2.23
2022-09-02T20:34:38.196Z,2.13
2022-09-02T20:37:16.339Z,2.10
2022-09-02T20:40:03.425Z,2.67
2022-09-02T20:42:53.326Z,2.70
2022-09-02T20:45:27.460Z,1.93
2022-09-02T20:48:07.568Z,2.10
2022-09-02T20:50:48.956Z,2.17
2022-09-02T20:53:38.345Z,2.10
2022-09-02T20:56:18.159Z,2.23
2022-09-02T20:58:51.529Z,2.10
2022-09-02T21:01:25.786Z,2.20
2022-09-02T21:04:02.651Z,2.53
2022-09-02T21:06:36.531Z,1.97
2022-09-02T21:09:20.357Z,2.40
2022-09-02T21:11:54.801Z,1.90
2022-09-02T21:14:26.756Z,2.45
2022-09-02T21:17:00.465Z,2.50
2022-09-02T21:19:34.869Z,2.15
2022-09-02T21:22:09.360Z,2.47
2022-09-02T21:24:45.153Z,2.07
2022-09-02T21:27:19.324Z,1.93
2022-09-02T21:29:54.913Z,2.23
2022-09-02T21:32:29.416Z,2.20
2022-09-02T21:35:03.150Z,2.60
2022-09-02T21:37:34.631Z,2.20
2022-09-02T21:40:06.759Z,2.20
2022-09-02T21:42:52.204Z,2.40
2022-09-02T21:45:25.543Z,2.30
2022-09-02T21:47:59.187Z,2.47
2022-09-02T21:50:40.019Z,2.42
2022-09-02T21:53:19.024Z,2.70
2022-09-02T21:56:00.103Z,2.53
2022-09-02T21:58:43.642Z,2.10
2022-09-02T22:01:18.936Z,2.30
2022-09-02T22:03:51.128Z,2.53
2022-09-02T22:06:26.853Z,2.97
2022-09-02T22:09:00.949Z,2.58
2022-09-02T22:11:36.805Z,2.50
2022-09-02T22:14:14.433Z,2.60
2022-09-02T22:16:51.007Z,2.63
2022-09-02T22:19:19.597Z,2.70
2022-09-02T22:21:55.061Z,2.33
2022-09-02T22:24:28.381Z,2.60
2022-09-02T22:27:02.342Z,2.13
2022-09-02T22:29:37.448Z,2.60
2022-09-02T22:32:11.007Z,2.47
2022-09-02T22:34:49.501Z,2.30
2022-09-02T22:37:25.113Z,2.70
2022-09-02T22:39:56.079Z,2.60
2022-09-02T22:42:32.357Z,2.50
2022-09-02T22:45:23.380Z,2.27
2022-09-02T22:48:12.919Z,2.20
2022-09-02T22:51:05.011Z,2.40
2022-09-02T22:53:34.151Z,2.80
2022-09-02T22:56:03.874Z,2.93
2022-09-02T22:59:01.396Z,2.70
2022-09-02T23:01:35.493Z,2.22
2022-09-02T23:04:14.248Z,2.57
2022-09-02T23:06:43.794Z,2.70
2022-09-02T23:09:14.729Z,2.33
2022-09-02T23:11:53.301Z,2.80
2022-09-02T23:14:28.842Z,2.50
2022-09-02T23:17:20.437Z,2.40
2022-09-02T23:19:58.922Z,1.93
2022-09-02T23:22:40.968Z,2.80
2022-09-02T23:25:30.184Z,2.90
2022-09-02T23:28:06.751Z,2.75
2022-09-02T23:30:36.526Z,2.58
2022-09-02T23:33:17.760Z,2.47
2022-09-02T23:35:53.660Z,2.50
2022-09-02T23:38:56.831Z,2.50
2022-09-02T23:41:26.113Z,2.30
2022-09-02T23:43:53.911Z,2.43
2022-09-02T23:46:34.217Z,2.33
2022-09-02T23:49:09.698Z,2.63
2022-09-02T23:51:45.848Z,2.90
2022-09-02T23:54:28.231Z,2.50
2022-09-02T23:57:11.972Z,2.20
2022-09-02T23:59:54.239Z,2.70
